Pilot Mound, IA (50223)

3:26 PM CDT on September 25, 2017 (GMT -0500)
Main street | | Change Station
Active Advisory: Special Statement

Elev 1129 ft 42.26 °N, 94.07 °W | Updated 26 seconds ago

Rain
Rain
69.3 °F
Feels Like 69.3 °F
N
3.0
Wind Variable Wind from West

Today
High -- | Low -- °F
--% Chance of Precip.
Yesterday
High -- | Low -- °F
Precip. -- in
Pressure 29.87 in
Visibility 2.0 miles
Clouds Scattered Clouds 2800 ft
Mostly Cloudy 4400 ft
Overcast 10000 ft
Dew Point 69 °F
Humidity 98%
Rainfall 0.00 in
Snow Depth Not available.
7:06 AM 7:07 PM
Waxing Crescent, 29% visible
METAR KBNW 252015Z AUTO 22009KT 2SM -RA SCT028 BKN044 OVC100 23/20 A2987 RMK AO2
Pressure 29.87 in
Visibility 2.0 miles
Clouds Scattered Clouds 2800 ft
Mostly Cloudy 4400 ft
Overcast 10000 ft
Dew Point 69 °F
Humidity 98%
Rainfall 0.00 in
Snow Depth Not available.
7:06 AM 7:07 PM
Waxing Crescent, 29% visible
METAR KBNW 252015Z AUTO 22009KT 2SM -RA SCT028 BKN044 OVC100 23/20 A2987 RMK AO2

Get Your Daily Forecast Email!

Thanks for signing up!

Be on the lookout for a verification email in your inbox.

You'll start receiving severe weather alerts in your inbox..

×

10-Day Weather Forecast

Almanac

Astronomy

Sep. 25, 2017 Rise Set
Actual Time
Civil Twilight
Nautical Twilight
Astronomical Twilight
Moon
Length of Visible Light
Length of Day
Tomorrow will be .
, % of the Moon is Illuminated

Today's Extremes

State Highs State Lows

Community

WunderPhotos

Category 6

Welcome to Category 6. This is the collective home for Weather Underground's featured writeups by Dr. Jeff Masters (right), Bob Henson (left), Chris Burt, and other regular contributors.

Nearby

Air Quality

  Air Quality AQ Index Pollutant
Not available.

Snow Depth

Station Depth Elevation

Earthquake Activity

City Distance Mag. Time & Date
Minimum magnitude displayed is 2.5.

Coastal Water Temperatures

Place Temperature

Stations

Nearby Weather Stations

Station Location Temp. Windchill Dew Point Humidity Wind Precip. Elev Updated Type
                   

Watches & Warnings

Special Statement
Issued: 3:16 PM CDT Sep. 25, 2017 – National Weather Service

... Line of storms may produce winds of 40 mph and small hail...

At 315 PM CDT, Doppler radar was tracking strong thunderstorms along
a line extending from 8 miles northwest of Ogden to near Woodward.
Movement was northeast at 35 mph.

Winds in excess of 40 mph and small hail will be possible with these
storms.

Locations impacted include...
Ames, Boone, Polk City, Huxley, Madrid, Ogden, Slater, Granger,
Gilbert, Woodward, Iowa State Center, Big Creek Lake, Boone Speedway,
Saylorville Lake, Cambridge, Elkhart, Alleman, Sheldahl, Kelley and
Boxholm.

Lat... Lon 4173 9400 4212 9425 4221 9398 4221 9393
      4223 9393 4229 9375 4181 9345
time... Mot... loc 2015z 234deg 31kt 4212 9416 4181 9395


Kotenberg